sensor_id;sensor_type;location;lat;lon;timestamp;temperature;humidity
51559;DHT22;61650;48.882;2.092;2022-09-23T00:00:00;9.40;72.80
51559;DHT22;61650;48.882;2.092;2022-09-23T00:02:26;9.30;73.00
51559;DHT22;61650;48.882;2.092;2022-09-23T00:04:51;9.20;72.70
51559;DHT22;61650;48.882;2.092;2022-09-23T00:07:17;9.20;73.30
51559;DHT22;61650;48.882;2.092;2022-09-23T00:09:42;9.10;73.90
51559;DHT22;61650;48.882;2.092;2022-09-23T00:12:08;9.10;73.90
51559;DHT22;61650;48.882;2.092;2022-09-23T00:14:36;9.20;73.90
51559;DHT22;61650;48.882;2.092;2022-09-23T00:17:02;9.20;73.50
51559;DHT22;61650;48.882;2.092;2022-09-23T00:19:27;9.20;73.50
51559;DHT22;61650;48.882;2.092;2022-09-23T00:21:54;9.10;73.80
51559;DHT22;61650;48.882;2.092;2022-09-23T00:24:21;9.00;74.40
51559;DHT22;61650;48.882;2.092;2022-09-23T00:26:47;8.90;74.60
51559;DHT22;61650;48.882;2.092;2022-09-23T00:29:13;8.90;74.40
51559;DHT22;61650;48.882;2.092;2022-09-23T00:31:40;9.00;74.20
51559;DHT22;61650;48.882;2.092;2022-09-23T00:34:05;8.90;74.50
51559;DHT22;61650;48.882;2.092;2022-09-23T00:36:31;8.90;74.60
51559;DHT22;61650;48.882;2.092;2022-09-23T00:38:57;8.90;74.60
51559;DHT22;61650;48.882;2.092;2022-09-23T00:41:25;8.80;75.00
51559;DHT22;61650;48.882;2.092;2022-09-23T00:43:57;8.80;75.10
51559;DHT22;61650;48.882;2.092;2022-09-23T00:46:29;8.70;74.90
51559;DHT22;61650;48.882;2.092;2022-09-23T00:49:11;8.70;75.00
51559;DHT22;61650;48.882;2.092;2022-09-23T00:51:49;8.70;75.70
51559;DHT22;61650;48.882;2.092;2022-09-23T00:54:20;8.70;75.70
51559;DHT22;61650;48.882;2.092;2022-09-23T00:56:46;8.70;75.40
51559;DHT22;61650;48.882;2.092;2022-09-23T00:59:12;8.70;75.30
51559;DHT22;61650;48.882;2.092;2022-09-23T01:01:38;8.80;74.90
51559;DHT22;61650;48.882;2.092;2022-09-23T01:04:05;8.70;75.10
51559;DHT22;61650;48.882;2.092;2022-09-23T01:06:32;8.80;74.90
51559;DHT22;61650;48.882;2.092;2022-09-23T01:08:57;8.70;75.10
51559;DHT22;61650;48.882;2.092;2022-09-23T01:11:52;8.60;75.50
51559;DHT22;61650;48.882;2.092;2022-09-23T01:16:54;8.40;76.50
51559;DHT22;61650;48.882;2.092;2022-09-23T01:30:53;8.20;77.20
51559;DHT22;61650;48.882;2.092;2022-09-23T01:36:22;8.40;76.30
51559;DHT22;61650;48.882;2.092;2022-09-23T01:38:59;8.30;76.50
51559;DHT22;61650;48.882;2.092;2022-09-23T01:42:01;8.40;76.10
51559;DHT22;61650;48.882;2.092;2022-09-23T01:44:41;8.40;76.20
51559;DHT22;61650;48.882;2.092;2022-09-23T01:47:18;8.30;76.80
51559;DHT22;61650;48.882;2.092;2022-09-23T01:52:18;8.30;76.90
51559;DHT22;61650;48.882;2.092;2022-09-23T01:54:54;8.20;77.40
51559;DHT22;61650;48.882;2.092;2022-09-23T01:57:43;8.20;77.60
51559;DHT22;61650;48.882;2.092;2022-09-23T02:00:17;8.20;77.20
51559;DHT22;61650;48.882;2.092;2022-09-23T02:07:54;8.40;76.40
51559;DHT22;61650;48.882;2.092;2022-09-23T02:12:58;8.50;75.80
51559;DHT22;61650;48.882;2.092;2022-09-23T02:15:31;8.40;76.40
51559;DHT22;61650;48.882;2.092;2022-09-23T02:18:08;8.30;76.80
51559;DHT22;61650;48.882;2.092;2022-09-23T02:20:37;8.30;76.60
51559;DHT22;61650;48.882;2.092;2022-09-23T02:23:13;8.20;77.30
51559;DHT22;61650;48.882;2.092;2022-09-23T02:25:43;8.20;77.30
51559;DHT22;61650;48.882;2.092;2022-09-23T02:28:18;8.30;77.30
51559;DHT22;61650;48.882;2.092;2022-09-23T02:30:53;8.30;77.20
51559;DHT22;61650;48.882;2.092;2022-09-23T02:33:53;8.30;77.20
51559;DHT22;61650;48.882;2.092;2022-09-23T02:36:29;8.40;76.90
51559;DHT22;61650;48.882;2.092;2022-09-23T02:39:01;8.50;76.40
51559;DHT22;61650;48.882;2.092;2022-09-23T02:41:44;8.40;77.10
51559;DHT22;61650;48.882;2.092;2022-09-23T02:44:16;8.20;77.70
51559;DHT22;61650;48.882;2.092;2022-09-23T02:46:42;8.20;77.80
51559;DHT22;61650;48.882;2.092;2022-09-23T02:49:11;8.30;77.60
51559;DHT22;61650;48.882;2.092;2022-09-23T02:51:39;8.40;77.40
51559;DHT22;61650;48.882;2.092;2022-09-23T02:54:10;8.40;77.40
51559;DHT22;61650;48.882;2.092;2022-09-23T02:56:39;8.40;77.10
51559;DHT22;61650;48.882;2.092;2022-09-23T02:59:06;8.40;77.40
51559;DHT22;61650;48.882;2.092;2022-09-23T03:04:38;8.50;77.00
51559;DHT22;61650;48.882;2.092;2022-09-23T03:07:22;8.40;77.10
51559;DHT22;61650;48.882;2.092;2022-09-23T03:18:36;8.30;78.30
51559;DHT22;61650;48.882;2.092;2022-09-23T03:21:28;8.30;79.00
51559;DHT22;61650;48.882;2.092;2022-09-23T03:23:57;8.30;78.50
51559;DHT22;61650;48.882;2.092;2022-09-23T03:26:29;8.30;78.60
51559;DHT22;61650;48.882;2.092;2022-09-23T03:28:56;8.40;78.10
51559;DHT22;61650;48.882;2.092;2022-09-23T03:31:23;8.50;77.70
51559;DHT22;61650;48.882;2.092;2022-09-23T03:33:53;8.50;77.60
51559;DHT22;61650;48.882;2.092;2022-09-23T03:36:26;8.60;77.10
51559;DHT22;61650;48.882;2.092;2022-09-23T03:39:16;8.70;77.20
51559;DHT22;61650;48.882;2.092;2022-09-23T03:41:46;8.70;76.90
51559;DHT22;61650;48.882;2.092;2022-09-23T03:44:16;8.60;77.40
51559;DHT22;61650;48.882;2.092;2022-09-23T03:46:42;8.60;77.20
51559;DHT22;61650;48.882;2.092;2022-09-23T03:49:34;8.50;77.90
51559;DHT22;61650;48.882;2.092;2022-09-23T03:52:02;8.50;77.90
51559;DHT22;61650;48.882;2.092;2022-09-23T03:54:28;8.40;78.20
51559;DHT22;61650;48.882;2.092;2022-09-23T03:56:55;8.40;79.00
51559;DHT22;61650;48.882;2.092;2022-09-23T03:59:22;8.50;78.70
51559;DHT22;61650;48.882;2.092;2022-09-23T04:01:48;8.50;78.20
51559;DHT22;61650;48.882;2.092;2022-09-23T04:04:14;8.50;78.20
51559;DHT22;61650;48.882;2.092;2022-09-23T04:06:40;8.40;79.20
51559;DHT22;61650;48.882;2.092;2022-09-23T04:09:05;8.40;79.00
51559;DHT22;61650;48.882;2.092;2022-09-23T04:11:31;8.40;78.80
51559;DHT22;61650;48.882;2.092;2022-09-23T04:13:57;8.50;79.10
51559;DHT22;61650;48.882;2.092;2022-09-23T04:16:23;8.40;79.00
51559;DHT22;61650;48.882;2.092;2022-09-23T04:18:49;8.50;79.00
51559;DHT22;61650;48.882;2.092;2022-09-23T04:21:14;8.50;78.70
51559;DHT22;61650;48.882;2.092;2022-09-23T04:23:40;8.60;78.50
51559;DHT22;61650;48.882;2.092;2022-09-23T04:26:06;8.50;78.50
51559;DHT22;61650;48.882;2.092;2022-09-23T04:28:32;8.50;78.40
51559;DHT22;61650;48.882;2.092;2022-09-23T04:30:57;8.50;78.30
51559;DHT22;61650;48.882;2.092;2022-09-23T04:33:23;8.50;78.60
51559;DHT22;61650;48.882;2.092;2022-09-23T04:35:52;8.30;79.30
51559;DHT22;61650;48.882;2.092;2022-09-23T04:38:19;8.40;79.20
51559;DHT22;61650;48.882;2.092;2022-09-23T04:40:46;8.40;78.90
51559;DHT22;61650;48.882;2.092;2022-09-23T04:43:12;8.40;79.40
51559;DHT22;61650;48.882;2.092;2022-09-23T04:45:40;8.30;79.90
51559;DHT22;61650;48.882;2.092;2022-09-23T04:48:06;8.30;79.60
51559;DHT22;61650;48.882;2.092;2022-09-23T04:50:35;8.40;79.70
51559;DHT22;61650;48.882;2.092;2022-09-23T04:53:02;8.30;79.00
51559;DHT22;61650;48.882;2.092;2022-09-23T04:55:28;8.30;79.00
51559;DHT22;61650;48.882;2.092;2022-09-23T04:57:54;8.30;79.60
51559;DHT22;61650;48.882;2.092;2022-09-23T05:00:19;8.30;79.70
51559;DHT22;61650;48.882;2.092;2022-09-23T05:02:47;8.20;80.00
51559;DHT22;61650;48.882;2.092;2022-09-23T05:05:14;8.10;80.50
51559;DHT22;61650;48.882;2.092;2022-09-23T05:07:44;8.10;80.30
51559;DHT22;61650;48.882;2.092;2022-09-23T05:10:10;8.20;79.90
51559;DHT22;61650;48.882;2.092;2022-09-23T05:12:35;8.20;79.70
51559;DHT22;61650;48.882;2.092;2022-09-23T05:15:01;8.20;80.20
51559;DHT22;61650;48.882;2.092;2022-09-23T05:17:27;8.20;80.40
51559;DHT22;61650;48.882;2.092;2022-09-23T05:19:53;8.20;79.90
51559;DHT22;61650;48.882;2.092;2022-09-23T05:22:18;8.30;79.60
51559;DHT22;61650;48.882;2.092;2022-09-23T05:24:44;8.40;79.40
51559;DHT22;61650;48.882;2.092;2022-09-23T05:27:10;8.40;79.50
51559;DHT22;61650;48.882;2.092;2022-09-23T05:29:36;8.30;79.60
51559;DHT22;61650;48.882;2.092;2022-09-23T05:32:03;8.30;80.50
51559;DHT22;61650;48.882;2.092;2022-09-23T05:34:28;8.20;80.70
51559;DHT22;61650;48.882;2.092;2022-09-23T05:36:54;8.20;80.40
51559;DHT22;61650;48.882;2.092;2022-09-23T05:39:20;8.30;80.00
51559;DHT22;61650;48.882;2.092;2022-09-23T05:41:45;8.30;80.00
51559;DHT22;61650;48.882;2.092;2022-09-23T05:44:11;8.40;80.00
51559;DHT22;61650;48.882;2.092;2022-09-23T05:46:36;8.40;80.20
51559;DHT22;61650;48.882;2.092;2022-09-23T05:49:03;8.40;80.40
51559;DHT22;61650;48.882;2.092;2022-09-23T05:51:31;8.40;80.00
51559;DHT22;61650;48.882;2.092;2022-09-23T05:53:57;8.50;79.80
51559;DHT22;61650;48.882;2.092;2022-09-23T05:56:24;8.50;79.50
51559;DHT22;61650;48.882;2.092;2022-09-23T05:58:52;8.70;79.10
51559;DHT22;61650;48.882;2.092;2022-09-23T06:01:20;8.70;78.80
51559;DHT22;61650;48.882;2.092;2022-09-23T06:03:47;8.60;79.10
51559;DHT22;61650;48.882;2.092;2022-09-23T06:06:14;8.60;79.20
51559;DHT22;61650;48.882;2.092;2022-09-23T06:08:41;8.70;79.50
51559;DHT22;61650;48.882;2.092;2022-09-23T06:11:07;8.80;79.00
51559;DHT22;61650;48.882;2.092;2022-09-23T06:13:34;8.90;78.80
51559;DHT22;61650;48.882;2.092;2022-09-23T06:16:01;8.90;78.40
51559;DHT22;61650;48.882;2.092;2022-09-23T06:18:27;8.90;78.60
51559;DHT22;61650;48.882;2.092;2022-09-23T06:20:52;8.90;78.50
51559;DHT22;61650;48.882;2.092;2022-09-23T06:23:18;9.00;78.50
51559;DHT22;61650;48.882;2.092;2022-09-23T06:25:43;9.00;78.60
51559;DHT22;61650;48.882;2.092;2022-09-23T06:28:09;9.00;78.60
51559;DHT22;61650;48.882;2.092;2022-09-23T06:30:37;9.00;78.60
51559;DHT22;61650;48.882;2.092;2022-09-23T06:33:04;9.00;78.90
51559;DHT22;61650;48.882;2.092;2022-09-23T06:35:29;9.00;78.80
51559;DHT22;61650;48.882;2.092;2022-09-23T06:37:57;9.10;78.70
51559;DHT22;61650;48.882;2.092;2022-09-23T06:40:23;9.20;78.40
51559;DHT22;61650;48.882;2.092;2022-09-23T06:42:59;9.30;78.20
51559;DHT22;61650;48.882;2.092;2022-09-23T06:45:25;9.30;77.70
51559;DHT22;61650;48.882;2.092;2022-09-23T06:47:56;9.30;77.90
51559;DHT22;61650;48.882;2.092;2022-09-23T06:50:24;9.30;78.00
51559;DHT22;61650;48.882;2.092;2022-09-23T06:52:53;9.40;78.00
51559;DHT22;61650;48.882;2.092;2022-09-23T06:55:23;9.40;77.90
51559;DHT22;61650;48.882;2.092;2022-09-23T06:57:49;9.40;78.40
51559;DHT22;61650;48.882;2.092;2022-09-23T07:00:15;9.40;78.50
51559;DHT22;61650;48.882;2.092;2022-09-23T07:02:41;9.50;78.50
51559;DHT22;61650;48.882;2.092;2022-09-23T07:05:08;9.50;78.30
51559;DHT22;61650;48.882;2.092;2022-09-23T07:07:34;9.60;78.00
51559;DHT22;61650;48.882;2.092;2022-09-23T07:10:05;9.70;77.80
51559;DHT22;61650;48.882;2.092;2022-09-23T07:12:34;9.80;77.60
51559;DHT22;61650;48.882;2.092;2022-09-23T07:14:59;10.00;77.60
51559;DHT22;61650;48.882;2.092;2022-09-23T07:17:25;10.10;76.90
51559;DHT22;61650;48.882;2.092;2022-09-23T07:19:50;10.20;76.40
51559;DHT22;61650;48.882;2.092;2022-09-23T07:22:17;10.30;76.30
51559;DHT22;61650;48.882;2.092;2022-09-23T07:24:43;10.40;76.60
51559;DHT22;61650;48.882;2.092;2022-09-23T07:27:11;10.40;76.30
51559;DHT22;61650;48.882;2.092;2022-09-23T07:29:43;10.50;76.50
51559;DHT22;61650;48.882;2.092;2022-09-23T07:32:09;10.60;76.80
51559;DHT22;61650;48.882;2.092;2022-09-23T07:34:35;10.70;76.50
51559;DHT22;61650;48.882;2.092;2022-09-23T07:37:01;10.80;76.40
51559;DHT22;61650;48.882;2.092;2022-09-23T07:39:27;10.80;75.90
51559;DHT22;61650;48.882;2.092;2022-09-23T07:41:52;10.90;75.80
51559;DHT22;61650;48.882;2.092;2022-09-23T07:44:18;11.00;75.80
51559;DHT22;61650;48.882;2.092;2022-09-23T07:46:47;11.10;75.40
51559;DHT22;61650;48.882;2.092;2022-09-23T07:49:14;11.20;75.30
51559;DHT22;61650;48.882;2.092;2022-09-23T07:51:41;11.30;75.20
51559;DHT22;61650;48.882;2.092;2022-09-23T07:54:13;11.30;75.30
51559;DHT22;61650;48.882;2.092;2022-09-23T07:56:40;11.50;74.90
51559;DHT22;61650;48.882;2.092;2022-09-23T07:59:08;11.60;74.50
51559;DHT22;61650;48.882;2.092;2022-09-23T08:01:40;11.70;74.30
51559;DHT22;61650;48.882;2.092;2022-09-23T08:06:41;12.00;73.10
51559;DHT22;61650;48.882;2.092;2022-09-23T08:09:08;12.10;72.70
51559;DHT22;61650;48.882;2.092;2022-09-23T08:11:34;12.20;72.30
51559;DHT22;61650;48.882;2.092;2022-09-23T08:14:01;12.30;72.60
51559;DHT22;61650;48.882;2.092;2022-09-23T08:16:27;12.40;72.50
51559;DHT22;61650;48.882;2.092;2022-09-23T08:18:52;12.50;72.50
51559;DHT22;61650;48.882;2.092;2022-09-23T08:21:19;12.60;72.50
51559;DHT22;61650;48.882;2.092;2022-09-23T08:23:45;12.70;72.10
51559;DHT22;61650;48.882;2.092;2022-09-23T08:26:11;12.80;71.60
51559;DHT22;61650;48.882;2.092;2022-09-23T08:28:37;13.00;70.80
51559;DHT22;61650;48.882;2.092;2022-09-23T08:31:02;13.10;70.60
51559;DHT22;61650;48.882;2.092;2022-09-23T08:33:28;13.20;70.40
51559;DHT22;61650;48.882;2.092;2022-09-23T08:35:59;13.30;69.40
51559;DHT22;61650;48.882;2.092;2022-09-23T08:38:25;13.40;69.30
51559;DHT22;61650;48.882;2.092;2022-09-23T08:40:51;13.50;69.00
51559;DHT22;61650;48.882;2.092;2022-09-23T08:45:47;13.70;68.10
51559;DHT22;61650;48.882;2.092;2022-09-23T08:48:17;13.80;67.30
51559;DHT22;61650;48.882;2.092;2022-09-23T08:50:49;13.90;67.50
51559;DHT22;61650;48.882;2.092;2022-09-23T08:53:32;13.90;67.00
51559;DHT22;61650;48.882;2.092;2022-09-23T08:56:12;14.00;65.80
51559;DHT22;61650;48.882;2.092;2022-09-23T09:04:13;14.10;66.10
51559;DHT22;61650;48.882;2.092;2022-09-23T09:12:34;14.20;65.40
51559;DHT22;61650;48.882;2.092;2022-09-23T09:15:11;14.30;64.40
51559;DHT22;61650;48.882;2.092;2022-09-23T09:23:15;14.60;64.80
51559;DHT22;61650;48.882;2.092;2022-09-23T09:25:50;14.70;65.10
51559;DHT22;61650;48.882;2.092;2022-09-23T09:30:58;14.90;64.90
51559;DHT22;61650;48.882;2.092;2022-09-23T09:36:39;15.00;63.60
51559;DHT22;61650;48.882;2.092;2022-09-23T09:39:13;15.10;63.90
51559;DHT22;61650;48.882;2.092;2022-09-23T09:41:47;15.10;64.30
51559;DHT22;61650;48.882;2.092;2022-09-23T09:46:58;15.10;63.80
51559;DHT22;61650;48.882;2.092;2022-09-23T09:49:47;15.20;63.80
51559;DHT22;61650;48.882;2.092;2022-09-23T09:52:24;15.20;62.80
51559;DHT22;61650;48.882;2.092;2022-09-23T09:54:51;15.20;63.00
51559;DHT22;61650;48.882;2.092;2022-09-23T09:57:37;15.20;63.50
51559;DHT22;61650;48.882;2.092;2022-09-23T10:02:44;15.30;63.00
51559;DHT22;61650;48.882;2.092;2022-09-23T10:05:33;15.40;63.20
51559;DHT22;61650;48.882;2.092;2022-09-23T10:08:32;15.50;62.50
51559;DHT22;61650;48.882;2.092;2022-09-23T10:11:14;15.50;62.60
51559;DHT22;61650;48.882;2.092;2022-09-23T10:13:41;15.60;62.80
51559;DHT22;61650;48.882;2.092;2022-09-23T10:16:07;15.60;63.10
51559;DHT22;61650;48.882;2.092;2022-09-23T10:18:37;15.60;62.80
51559;DHT22;61650;48.882;2.092;2022-09-23T10:21:09;15.70;62.60
51559;DHT22;61650;48.882;2.092;2022-09-23T10:23:45;15.80;62.40
51559;DHT22;61650;48.882;2.092;2022-09-23T10:26:12;15.90;62.00
51559;DHT22;61650;48.882;2.092;2022-09-23T10:28:50;16.10;61.20
51559;DHT22;61650;48.882;2.092;2022-09-23T10:31:26;16.10;60.90
51559;DHT22;61650;48.882;2.092;2022-09-23T10:33:59;16.20;60.70
51559;DHT22;61650;48.882;2.092;2022-09-23T10:36:27;16.30;60.50
51559;DHT22;61650;48.882;2.092;2022-09-23T10:39:04;16.40;58.00
51559;DHT22;61650;48.882;2.092;2022-09-23T10:42:02;16.50;56.60
51559;DHT22;61650;48.882;2.092;2022-09-23T10:45:00;16.60;57.10
51559;DHT22;61650;48.882;2.092;2022-09-23T10:47:56;16.70;56.60
51559;DHT22;61650;48.882;2.092;2022-09-23T10:50:43;16.80;56.30
51559;DHT22;61650;48.882;2.092;2022-09-23T10:58:45;16.90;55.00
51559;DHT22;61650;48.882;2.092;2022-09-23T11:01:37;16.90;55.50
51559;DHT22;61650;48.882;2.092;2022-09-23T11:06:49;17.10;51.80
51559;DHT22;61650;48.882;2.092;2022-09-23T11:09:52;17.10;54.70
51559;DHT22;61650;48.882;2.092;2022-09-23T11:26:27;17.40;54.80
51559;DHT22;61650;48.882;2.092;2022-09-23T11:32:12;17.70;52.40
51559;DHT22;61650;48.882;2.092;2022-09-23T11:37:35;17.80;53.80
51559;DHT22;61650;48.882;2.092;2022-09-23T11:40:12;17.80;54.00
51559;DHT22;61650;48.882;2.092;2022-09-23T11:45:22;17.90;51.70
51559;DHT22;61650;48.882;2.092;2022-09-23T11:47:54;18.00;52.50
51559;DHT22;61650;48.882;2.092;2022-09-23T11:50:31;18.00;52.30
51559;DHT22;61650;48.882;2.092;2022-09-23T11:53:10;18.10;52.20
51559;DHT22;61650;48.882;2.092;2022-09-23T11:55:43;18.20;52.00
51559;DHT22;61650;48.882;2.092;2022-09-23T11:58:22;18.30;51.50
51559;DHT22;61650;48.882;2.092;2022-09-23T12:00:57;18.20;50.80
51559;DHT22;61650;48.882;2.092;2022-09-23T12:03:46;18.30;51.50
51559;DHT22;61650;48.882;2.092;2022-09-23T12:06:16;18.30;50.60
51559;DHT22;61650;48.882;2.092;2022-09-23T12:08:44;18.30;51.90
51559;DHT22;61650;48.882;2.092;2022-09-23T12:19:55;18.70;49.80
51559;DHT22;61650;48.882;2.092;2022-09-23T12:27:49;19.00;49.60
51559;DHT22;61650;48.882;2.092;2022-09-23T12:30:25;19.00;48.50
51559;DHT22;61650;48.882;2.092;2022-09-23T12:32:59;19.00;49.30
51559;DHT22;61650;48.882;2.092;2022-09-23T12:35:37;19.00;49.80
51559;DHT22;61650;48.882;2.092;2022-09-23T12:38:12;18.90;50.10
51559;DHT22;61650;48.882;2.092;2022-09-23T12:40:38;19.00;49.00
51559;DHT22;61650;48.882;2.092;2022-09-23T12:43:31;19.10;48.70
51559;DHT22;61650;48.882;2.092;2022-09-23T12:46:18;19.10;47.20
51559;DHT22;61650;48.882;2.092;2022-09-23T12:51:23;19.40;47.40
51559;DHT22;61650;48.882;2.092;2022-09-23T12:53:53;19.40;47.20
51559;DHT22;61650;48.882;2.092;2022-09-23T12:56:27;19.60;47.00
51559;DHT22;61650;48.882;2.092;2022-09-23T13:01:25;20.00;47.30
51559;DHT22;61650;48.882;2.092;2022-09-23T13:03:56;20.00;46.10
51559;DHT22;61650;48.882;2.092;2022-09-23T13:06:56;20.10;46.20
51559;DHT22;61650;48.882;2.092;2022-09-23T13:09:27;20.00;46.10
51559;DHT22;61650;48.882;2.092;2022-09-23T13:12:01;19.80;46.80
51559;DHT22;61650;48.882;2.092;2022-09-23T13:14:31;19.80;46.80
51559;DHT22;61650;48.882;2.092;2022-09-23T13:16:57;19.70;47.10
51559;DHT22;61650;48.882;2.092;2022-09-23T13:26:54;19.50;46.60
51559;DHT22;61650;48.882;2.092;2022-09-23T13:32:16;19.50;46.00
51559;DHT22;61650;48.882;2.092;2022-09-23T13:34:45;19.50;46.70
51559;DHT22;61650;48.882;2.092;2022-09-23T13:37:23;19.60;46.60
51559;DHT22;61650;48.882;2.092;2022-09-23T13:39:49;19.60;45.10
51559;DHT22;61650;48.882;2.092;2022-09-23T13:42:28;19.60;45.60
51559;DHT22;61650;48.882;2.092;2022-09-23T13:44:56;19.60;45.20
51559;DHT22;61650;48.882;2.092;2022-09-23T13:47:27;19.60;46.30
51559;DHT22;61650;48.882;2.092;2022-09-23T13:49:54;19.60;45.80
51559;DHT22;61650;48.882;2.092;2022-09-23T13:52:28;19.80;45.30
51559;DHT22;61650;48.882;2.092;2022-09-23T13:54:56;20.40;44.60
51559;DHT22;61650;48.882;2.092;2022-09-23T13:57:30;21.00;43.10
51559;DHT22;61650;48.882;2.092;2022-09-23T14:00:17;21.10;41.10
51559;DHT22;61650;48.882;2.092;2022-09-23T14:02:43;20.70;43.20
51559;DHT22;61650;48.882;2.092;2022-09-23T14:05:12;20.60;43.50
51559;DHT22;61650;48.882;2.092;2022-09-23T14:07:41;20.80;43.70
51559;DHT22;61650;48.882;2.092;2022-09-23T14:10:07;20.50;44.00
51559;DHT22;61650;48.882;2.092;2022-09-23T14:12:41;20.30;44.10
51559;DHT22;61650;48.882;2.092;2022-09-23T14:15:12;20.10;44.70
51559;DHT22;61650;48.882;2.092;2022-09-23T14:17:38;19.90;44.40
51559;DHT22;61650;48.882;2.092;2022-09-23T14:20:12;19.80;45.00
51559;DHT22;61650;48.882;2.092;2022-09-23T14:22:38;19.70;44.90
51559;DHT22;61650;48.882;2.092;2022-09-23T14:25:04;19.70;45.40
51559;DHT22;61650;48.882;2.092;2022-09-23T14:27:36;19.60;45.40
51559;DHT22;61650;48.882;2.092;2022-09-23T14:30:04;19.50;46.00
51559;DHT22;61650;48.882;2.092;2022-09-23T14:32:30;19.50;46.30
51559;DHT22;61650;48.882;2.092;2022-09-23T14:40:36;19.40;45.60
51559;DHT22;61650;48.882;2.092;2022-09-23T14:43:05;19.40;45.60
51559;DHT22;61650;48.882;2.092;2022-09-23T14:45:38;19.40;45.80
51559;DHT22;61650;48.882;2.092;2022-09-23T14:48:07;19.40;45.80
51559;DHT22;61650;48.882;2.092;2022-09-23T14:50:34;19.40;46.00
51559;DHT22;61650;48.882;2.092;2022-09-23T14:55:51;19.30;47.00
51559;DHT22;61650;48.882;2.092;2022-09-23T14:58:21;19.30;46.80
51559;DHT22;61650;48.882;2.092;2022-09-23T15:00:53;19.40;45.80
51559;DHT22;61650;48.882;2.092;2022-09-23T15:03:19;19.50;45.60
51559;DHT22;61650;48.882;2.092;2022-09-23T15:05:50;19.50;45.40
51559;DHT22;61650;48.882;2.092;2022-09-23T15:08:24;19.60;45.30
51559;DHT22;61650;48.882;2.092;2022-09-23T15:10:51;19.70;45.00
51559;DHT22;61650;48.882;2.092;2022-09-23T15:13:21;19.80;44.80
51559;DHT22;61650;48.882;2.092;2022-09-23T15:15:51;19.90;44.50
51559;DHT22;61650;48.882;2.092;2022-09-23T15:18:21;19.90;44.60
51559;DHT22;61650;48.882;2.092;2022-09-23T15:21:00;19.90;44.90
51559;DHT22;61650;48.882;2.092;2022-09-23T15:28:44;19.80;44.60
51559;DHT22;61650;48.882;2.092;2022-09-23T15:31:21;19.80;44.50
51559;DHT22;61650;48.882;2.092;2022-09-23T15:33:50;19.70;44.80
51559;DHT22;61650;48.882;2.092;2022-09-23T15:36:26;19.70;45.00
51559;DHT22;61650;48.882;2.092;2022-09-23T15:38:53;19.70;44.60
51559;DHT22;61650;48.882;2.092;2022-09-23T15:41:21;19.70;45.00
51559;DHT22;61650;48.882;2.092;2022-09-23T15:43:49;19.60;45.40
51559;DHT22;61650;48.882;2.092;2022-09-23T15:46:21;19.60;45.50
51559;DHT22;61650;48.882;2.092;2022-09-23T15:49:04;19.60;45.20
51559;DHT22;61650;48.882;2.092;2022-09-23T15:51:30;19.60;45.20
51559;DHT22;61650;48.882;2.092;2022-09-23T15:53:56;19.50;45.60
51559;DHT22;61650;48.882;2.092;2022-09-23T15:56:23;19.50;45.80
51559;DHT22;61650;48.882;2.092;2022-09-23T15:58:49;19.50;46.10
51559;DHT22;61650;48.882;2.092;2022-09-23T16:01:26;19.40;46.00
51559;DHT22;61650;48.882;2.092;2022-09-23T16:03:53;19.30;46.50
51559;DHT22;61650;48.882;2.092;2022-09-23T16:06:18;19.30;46.40
51559;DHT22;61650;48.882;2.092;2022-09-23T16:08:45;19.30;46.00
51559;DHT22;61650;48.882;2.092;2022-09-23T16:11:17;19.30;46.20
51559;DHT22;61650;48.882;2.092;2022-09-23T16:13:45;19.20;46.30
51559;DHT22;61650;48.882;2.092;2022-09-23T16:16:11;19.20;46.00
51559;DHT22;61650;48.882;2.092;2022-09-23T16:18:37;19.20;46.20
51559;DHT22;61650;48.882;2.092;2022-09-23T16:21:04;19.10;46.50
51559;DHT22;61650;48.882;2.092;2022-09-23T16:23:34;19.10;47.20
51559;DHT22;61650;48.882;2.092;2022-09-23T16:26:15;19.00;48.40
51559;DHT22;61650;48.882;2.092;2022-09-23T16:28:43;18.90;50.70
51559;DHT22;61650;48.882;2.092;2022-09-23T16:31:09;18.80;49.70
51559;DHT22;61650;48.882;2.092;2022-09-23T16:33:36;18.80;50.30
51559;DHT22;61650;48.882;2.092;2022-09-23T16:36:03;18.70;50.70
51559;DHT22;61650;48.882;2.092;2022-09-23T16:38:29;18.60;51.10
51559;DHT22;61650;48.882;2.092;2022-09-23T16:40:56;18.60;50.90
51559;DHT22;61650;48.882;2.092;2022-09-23T16:43:25;18.60;51.00
51559;DHT22;61650;48.882;2.092;2022-09-23T16:45:53;18.50;50.90
51559;DHT22;61650;48.882;2.092;2022-09-23T16:48:19;18.60;49.90
51559;DHT22;61650;48.882;2.092;2022-09-23T16:50:45;18.60;50.10
51559;DHT22;61650;48.882;2.092;2022-09-23T16:53:12;18.50;50.90
51559;DHT22;61650;48.882;2.092;2022-09-23T16:55:40;18.40;51.60
51559;DHT22;61650;48.882;2.092;2022-09-23T16:58:06;18.20;52.10
51559;DHT22;61650;48.882;2.092;2022-09-23T17:00:31;18.10;52.70
51559;DHT22;61650;48.882;2.092;2022-09-23T17:03:16;18.00;52.80
51559;DHT22;61650;48.882;2.092;2022-09-23T17:06:00;17.90;53.00
51559;DHT22;61650;48.882;2.092;2022-09-23T17:08:26;17.90;53.30
51559;DHT22;61650;48.882;2.092;2022-09-23T17:10:57;17.70;53.80
51559;DHT22;61650;48.882;2.092;2022-09-23T17:13:24;17.60;53.90
51559;DHT22;61650;48.882;2.092;2022-09-23T17:15:50;17.50;54.00
51559;DHT22;61650;48.882;2.092;2022-09-23T17:18:16;17.50;54.20
51559;DHT22;61650;48.882;2.092;2022-09-23T17:20:42;17.40;54.40
51559;DHT22;61650;48.882;2.092;2022-09-23T17:23:08;17.40;54.80
51559;DHT22;61650;48.882;2.092;2022-09-23T17:25:33;17.30;55.10
51559;DHT22;61650;48.882;2.092;2022-09-23T17:28:00;17.20;55.30
51559;DHT22;61650;48.882;2.092;2022-09-23T17:30:26;17.20;55.80
51559;DHT22;61650;48.882;2.092;2022-09-23T17:32:53;17.10;55.90
51559;DHT22;61650;48.882;2.092;2022-09-23T17:35:18;17.00;56.20
51559;DHT22;61650;48.882;2.092;2022-09-23T17:37:44;17.00;56.70
51559;DHT22;61650;48.882;2.092;2022-09-23T17:40:13;16.90;56.70
51559;DHT22;61650;48.882;2.092;2022-09-23T17:42:39;16.90;57.10
51559;DHT22;61650;48.882;2.092;2022-09-23T17:45:09;16.80;57.50
51559;DHT22;61650;48.882;2.092;2022-09-23T17:47:37;16.80;57.90
51559;DHT22;61650;48.882;2.092;2022-09-23T17:50:03;16.70;58.40
51559;DHT22;61650;48.882;2.092;2022-09-23T17:52:31;16.70;58.90
51559;DHT22;61650;48.882;2.092;2022-09-23T17:54:56;16.70;59.20
51559;DHT22;61650;48.882;2.092;2022-09-23T17:57:22;16.60;59.80
51559;DHT22;61650;48.882;2.092;2022-09-23T17:59:47;16.60;59.90
51559;DHT22;61650;48.882;2.092;2022-09-23T18:02:16;16.60;60.40
51559;DHT22;61650;48.882;2.092;2022-09-23T18:04:44;16.50;60.70
51559;DHT22;61650;48.882;2.092;2022-09-23T18:07:09;16.50;61.00
51559;DHT22;61650;48.882;2.092;2022-09-23T18:09:35;16.40;61.20
51559;DHT22;61650;48.882;2.092;2022-09-23T18:12:00;16.40;61.70
51559;DHT22;61650;48.882;2.092;2022-09-23T18:14:26;16.30;62.20
51559;DHT22;61650;48.882;2.092;2022-09-23T18:16:53;16.30;63.00
51559;DHT22;61650;48.882;2.092;2022-09-23T18:19:21;16.20;63.70
51559;DHT22;61650;48.882;2.092;2022-09-23T18:21:52;16.20;63.20